sensor_id;sensor_type;location;lat;lon;timestamp;pressure;altitude;pressure_sealevel;temperature;humidity
41250;BME280;26984;59.928;30.306;2023-04-25T00:01:47;100520.59;;;13.24;100.00
41250;BME280;26984;59.928;30.306;2023-04-25T00:04:14;100523.31;;;13.24;100.00
41250;BME280;26984;59.928;30.306;2023-04-25T00:06:43;100518.09;;;13.23;100.00
41250;BME280;26984;59.928;30.306;2023-04-25T00:09:11;100520.09;;;13.15;100.00
41250;BME280;26984;59.928;30.306;2023-04-25T00:11:40;100521.50;;;13.18;100.00
41250;BME280;26984;59.928;30.306;2023-04-25T00:14:07;100518.69;;;13.13;100.00
41250;BME280;26984;59.928;30.306;2023-04-25T00:16:35;100521.88;;;13.10;100.00
41250;BME280;26984;59.928;30.306;2023-04-25T00:19:03;100515.66;;;13.09;100.00
41250;BME280;26984;59.928;30.306;2023-04-25T00:21:31;100519.63;;;13.07;100.00
41250;BME280;26984;59.928;30.306;2023-04-25T00:24:00;100532.66;;;12.98;100.00
41250;BME280;26984;59.928;30.306;2023-04-25T00:26:27;100522.00;;;12.91;100.00
41250;BME280;26984;59.928;30.306;2023-04-25T00:28:55;100522.66;;;12.87;100.00
41250;BME280;26984;59.928;30.306;2023-04-25T00:31:22;100520.78;;;12.87;100.00
41250;BME280;26984;59.928;30.306;2023-04-25T00:33:50;100500.59;;;12.78;100.00
41250;BME280;26984;59.928;30.306;2023-04-25T00:36:19;100518.94;;;12.88;100.00
41250;BME280;26984;59.928;30.306;2023-04-25T00:38:46;100515.38;;;12.87;100.00
41250;BME280;26984;59.928;30.306;2023-04-25T00:41:15;100515.16;;;12.89;100.00
41250;BME280;26984;59.928;30.306;2023-04-25T00:43:43;100515.38;;;12.87;100.00
41250;BME280;26984;59.928;30.306;2023-04-25T00:46:11;100513.97;;;12.73;100.00
41250;BME280;26984;59.928;30.306;2023-04-25T00:48:39;100514.09;;;12.66;100.00
41250;BME280;26984;59.928;30.306;2023-04-25T00:51:07;100520.16;;;12.62;100.00
41250;BME280;26984;59.928;30.306;2023-04-25T00:53:35;100519.47;;;12.55;100.00
41250;BME280;26984;59.928;30.306;2023-04-25T00:56:03;100514.75;;;12.50;100.00
41250;BME280;26984;59.928;30.306;2023-04-25T00:58:31;100517.31;;;12.45;100.00
41250;BME280;26984;59.928;30.306;2023-04-25T01:00:59;100516.13;;;12.41;100.00
41250;BME280;26984;59.928;30.306;2023-04-25T01:03:27;100520.72;;;12.40;100.00
41250;BME280;26984;59.928;30.306;2023-04-25T01:05:55;100525.53;;;12.38;100.00
41250;BME280;26984;59.928;30.306;2023-04-25T01:08:23;100520.59;;;12.35;100.00
41250;BME280;26984;59.928;30.306;2023-04-25T01:10:51;100520.34;;;12.37;100.00
41250;BME280;26984;59.928;30.306;2023-04-25T01:13:18;100517.91;;;12.35;100.00
41250;BME280;26984;59.928;30.306;2023-04-25T01:15:47;100530.34;;;12.36;100.00
41250;BME280;26984;59.928;30.306;2023-04-25T01:18:15;100529.16;;;12.32;100.00
41250;BME280;26984;59.928;30.306;2023-04-25T01:20:43;100519.25;;;12.26;100.00
41250;BME280;26984;59.928;30.306;2023-04-25T01:23:12;100510.94;;;12.28;100.00
41250;BME280;26984;59.928;30.306;2023-04-25T01:25:40;100516.56;;;12.26;100.00
41250;BME280;26984;59.928;30.306;2023-04-25T01:28:08;100517.09;;;12.16;100.00
41250;BME280;26984;59.928;30.306;2023-04-25T01:30:36;100517.81;;;12.12;100.00
41250;BME280;26984;59.928;30.306;2023-04-25T01:33:04;100517.59;;;12.13;100.00
41250;BME280;26984;59.928;30.306;2023-04-25T01:35:33;100523.22;;;12.12;100.00
41250;BME280;26984;59.928;30.306;2023-04-25T01:38:04;100521.03;;;12.20;100.00
41250;BME280;26984;59.928;30.306;2023-04-25T01:40:34;100516.09;;;12.17;100.00
41250;BME280;26984;59.928;30.306;2023-04-25T01:43:03;100517.59;;;12.13;100.00
41250;BME280;26984;59.928;30.306;2023-04-25T01:45:30;100519.81;;;12.16;100.00
41250;BME280;26984;59.928;30.306;2023-04-25T01:47:59;100523.00;;;12.13;100.00
41250;BME280;26984;59.928;30.306;2023-04-25T01:50:26;100517.25;;;12.21;100.00
41250;BME280;26984;59.928;30.306;2023-04-25T01:52:55;100517.34;;;12.15;100.00
41250;BME280;26984;59.928;30.306;2023-04-25T01:55:23;100522.38;;;12.11;100.00
41250;BME280;26984;59.928;30.306;2023-04-25T01:58:01;100518.19;;;12.15;100.00
41250;BME280;26984;59.928;30.306;2023-04-25T02:00:49;100519.81;;;12.16;100.00
41250;BME280;26984;59.928;30.306;2023-04-25T02:03:17;100508.88;;;12.11;100.00
41250;BME280;26984;59.928;30.306;2023-04-25T02:05:45;100520.50;;;12.12;100.00
41250;BME280;26984;59.928;30.306;2023-04-25T02:08:13;100517.59;;;12.13;100.00
41250;BME280;26984;59.928;30.306;2023-04-25T02:10:41;100515.00;;;12.18;100.00
41250;BME280;26984;59.928;30.306;2023-04-25T02:13:20;100516.44;;;12.21;100.00
41250;BME280;26984;59.928;30.306;2023-04-25T02:16:14;100509.16;;;12.21;100.00
41250;BME280;26984;59.928;30.306;2023-04-25T02:18:42;100511.72;;;12.16;100.00
41250;BME280;26984;59.928;30.306;2023-04-25T02:21:10;100510.31;;;12.14;100.00
41250;BME280;26984;59.928;30.306;2023-04-25T02:23:38;100512.78;;;12.15;100.00
41250;BME280;26984;59.928;30.306;2023-04-25T02:26:06;100513.84;;;12.14;99.92
41250;BME280;26984;59.928;30.306;2023-04-25T02:28:35;100521.03;;;12.20;99.09
41250;BME280;26984;59.928;30.306;2023-04-25T02:31:04;100516.28;;;12.16;99.11
41250;BME280;26984;59.928;30.306;2023-04-25T02:33:32;100519.69;;;12.11;98.48
41250;BME280;26984;59.928;30.306;2023-04-25T02:35:59;100528.03;;;12.10;97.81
41250;BME280;26984;59.928;30.306;2023-04-25T02:38:26;100523.44;;;12.10;96.77
41250;BME280;26984;59.928;30.306;2023-04-25T02:40:56;100525.22;;;12.16;95.53
41250;BME280;26984;59.928;30.306;2023-04-25T02:43:25;100524.97;;;12.06;95.32
41250;BME280;26984;59.928;30.306;2023-04-25T02:45:54;100525.63;;;12.02;95.18
41250;BME280;26984;59.928;30.306;2023-04-25T02:48:22;100520.31;;;11.95;95.37
41250;BME280;26984;59.928;30.306;2023-04-25T02:50:49;100512.13;;;12.02;93.27
41250;BME280;26984;59.928;30.306;2023-04-25T02:53:17;100520.13;;;12.08;92.38
41250;BME280;26984;59.928;30.306;2023-04-25T02:55:48;100511.75;;;11.98;92.80
41250;BME280;26984;59.928;30.306;2023-04-25T02:58:18;100522.09;;;12.01;92.35
41250;BME280;26984;59.928;30.306;2023-04-25T03:00:48;100520.47;;;12.00;91.64
41250;BME280;26984;59.928;30.306;2023-04-25T03:03:18;100508.25;;;11.97;91.97
41250;BME280;26984;59.928;30.306;2023-04-25T03:05:48;100515.88;;;12.01;91.28
41250;BME280;26984;59.928;30.306;2023-04-25T03:08:19;100516.72;;;12.01;90.39
41250;BME280;26984;59.928;30.306;2023-04-25T03:10:47;100516.72;;;12.01;89.54
41250;BME280;26984;59.928;30.306;2023-04-25T03:13:16;100527.41;;;12.08;88.72
41250;BME280;26984;59.928;30.306;2023-04-25T03:15:44;100520.88;;;12.15;86.82
41250;BME280;26984;59.928;30.306;2023-04-25T03:18:11;100519.94;;;12.10;86.67
41250;BME280;26984;59.928;30.306;2023-04-25T03:20:41;100517.59;;;12.13;85.84
41250;BME280;26984;59.928;30.306;2023-04-25T03:23:08;100524.41;;;12.16;84.99
41250;BME280;26984;59.928;30.306;2023-04-25T03:25:38;100531.47;;;12.17;84.66
41250;BME280;26984;59.928;30.306;2023-04-25T03:28:06;100530.63;;;12.16;83.68
41250;BME280;26984;59.928;30.306;2023-04-25T03:30:33;100534.16;;;12.17;82.98
41250;BME280;26984;59.928;30.306;2023-04-25T03:33:01;100527.81;;;12.23;80.16
41250;BME280;26984;59.928;30.306;2023-04-25T03:35:28;100530.34;;;12.36;77.35
41250;BME280;26984;59.928;30.306;2023-04-25T03:37:58;100524.03;;;12.42;76.18
41250;BME280;26984;59.928;30.306;2023-04-25T03:40:29;100530.00;;;12.44;75.74
41250;BME280;26984;59.928;30.306;2023-04-25T03:43:19;100524.50;;;12.51;74.68
41250;BME280;26984;59.928;30.306;2023-04-25T03:45:56;100528.75;;;12.59;72.95
41250;BME280;26984;59.928;30.306;2023-04-25T03:48:25;100527.47;;;12.61;72.71
41250;BME280;26984;59.928;30.306;2023-04-25T03:50:53;100525.38;;;12.63;73.37
41250;BME280;26984;59.928;30.306;2023-04-25T03:53:22;100533.22;;;12.65;72.77
41250;BME280;26984;59.928;30.306;2023-04-25T03:56:24;100532.78;;;12.68;72.03
41250;BME280;26984;59.928;30.306;2023-04-25T03:59:00;100527.13;;;12.69;71.72
41250;BME280;26984;59.928;30.306;2023-04-25T04:01:29;100526.78;;;12.78;70.10
41250;BME280;26984;59.928;30.306;2023-04-25T04:03:57;100530.53;;;12.77;70.42
41250;BME280;26984;59.928;30.306;2023-04-25T04:06:26;100527.16;;;12.81;69.78
41250;BME280;26984;59.928;30.306;2023-04-25T04:09:03;100512.94;;;12.74;70.49
41250;BME280;26984;59.928;30.306;2023-04-25T04:11:36;100534.09;;;12.89;68.92
41250;BME280;26984;59.928;30.306;2023-04-25T04:14:04;100536.91;;;12.94;68.22
41250;BME280;26984;59.928;30.306;2023-04-25T04:16:32;100523.72;;;12.98;67.65
41250;BME280;26984;59.928;30.306;2023-04-25T04:19:00;100531.63;;;12.99;67.74
41250;BME280;26984;59.928;30.306;2023-04-25T04:21:27;100526.13;;;13.06;67.10
41250;BME280;26984;59.928;30.306;2023-04-25T04:23:56;100528.91;;;13.11;67.01
41250;BME280;26984;59.928;30.306;2023-04-25T04:26:25;100525.50;;;13.15;66.93
41250;BME280;26984;59.928;30.306;2023-04-25T04:29:16;100532.94;;;13.20;66.56
41250;BME280;26984;59.928;30.306;2023-04-25T04:31:57;100534.13;;;13.24;66.20
41250;BME280;26984;59.928;30.306;2023-04-25T04:34:31;100533.41;;;13.29;66.47
41250;BME280;26984;59.928;30.306;2023-04-25T04:37:00;100536.56;;;13.37;65.97
41250;BME280;26984;59.928;30.306;2023-04-25T04:39:28;100529.16;;;13.45;65.77
41250;BME280;26984;59.928;30.306;2023-04-25T04:42:05;100532.31;;;13.53;65.40
41250;BME280;26984;59.928;30.306;2023-04-25T04:44:51;100533.34;;;13.64;65.57
41250;BME280;26984;59.928;30.306;2023-04-25T04:47:39;100533.91;;;13.78;64.95
41250;BME280;26984;59.928;30.306;2023-04-25T04:50:18;100533.31;;;13.87;65.09
41250;BME280;26984;59.928;30.306;2023-04-25T04:53:03;100536.31;;;14.03;64.72
41250;BME280;26984;59.928;30.306;2023-04-25T04:55:49;100534.34;;;14.15;64.61
41250;BME280;26984;59.928;30.306;2023-04-25T04:58:57;100534.16;;;14.33;63.23
41250;BME280;26984;59.928;30.306;2023-04-25T05:01:43;100540.00;;;14.42;62.93
41250;BME280;26984;59.928;30.306;2023-04-25T05:04:34;100533.81;;;14.58;61.95
41250;BME280;26984;59.928;30.306;2023-04-25T05:07:25;100531.09;;;14.75;61.65
41250;BME280;26984;59.928;30.306;2023-04-25T05:10:15;100529.81;;;14.95;61.49
41250;BME280;26984;59.928;30.306;2023-04-25T05:13:08;100539.31;;;15.14;61.30
41250;BME280;26984;59.928;30.306;2023-04-25T05:15:39;100534.75;;;15.37;59.68
41250;BME280;26984;59.928;30.306;2023-04-25T05:18:34;100535.59;;;15.59;59.64
41250;BME280;26984;59.928;30.306;2023-04-25T05:21:28;100531.84;;;15.82;58.93
41250;BME280;26984;59.928;30.306;2023-04-25T05:24:34;100537.78;;;16.01;58.95
41250;BME280;26984;59.928;30.306;2023-04-25T05:27:35;100529.28;;;16.19;56.42
41250;BME280;26984;59.928;30.306;2023-04-25T05:30:34;100526.13;;;16.33;56.51
41250;BME280;26984;59.928;30.306;2023-04-25T05:33:12;100528.13;;;16.42;56.50
41250;BME280;26984;59.928;30.306;2023-04-25T05:35:41;100529.56;;;16.50;55.87
41250;BME280;26984;59.928;30.306;2023-04-25T05:38:10;100534.78;;;16.57;54.34
41250;BME280;26984;59.928;30.306;2023-04-25T05:40:57;100528.31;;;16.63;54.61
41250;BME280;26984;59.928;30.306;2023-04-25T05:44:01;100527.53;;;16.67;54.43
41250;BME280;26984;59.928;30.306;2023-04-25T05:46:44;100523.03;;;16.78;53.08
41250;BME280;26984;59.928;30.306;2023-04-25T05:49:28;100527.72;;;16.83;53.20
41250;BME280;26984;59.928;30.306;2023-04-25T05:51:56;100522.88;;;16.90;53.03
41250;BME280;26984;59.928;30.306;2023-04-25T05:54:59;100524.88;;;17.05;51.73
41250;BME280;26984;59.928;30.306;2023-04-25T05:57:34;100520.03;;;17.17;51.14
41250;BME280;26984;59.928;30.306;2023-04-25T06:00:02;100524.16;;;17.24;51.60
41250;BME280;26984;59.928;30.306;2023-04-25T06:02:41;100513.34;;;17.35;50.68
41250;BME280;26984;59.928;30.306;2023-04-25T06:05:12;100513.91;;;17.42;50.18
41250;BME280;26984;59.928;30.306;2023-04-25T06:07:40;100511.47;;;17.45;50.89
41250;BME280;26984;59.928;30.306;2023-04-25T06:10:08;100514.78;;;17.53;49.89
41250;BME280;26984;59.928;30.306;2023-04-25T06:12:35;100520.00;;;17.59;50.08
41250;BME280;26984;59.928;30.306;2023-04-25T06:15:05;100517.28;;;17.64;49.49
41250;BME280;26984;59.928;30.306;2023-04-25T06:17:32;100519.47;;;17.67;49.89
41250;BME280;26984;59.928;30.306;2023-04-25T06:20:01;100511.88;;;17.75;48.89
41250;BME280;26984;59.928;30.306;2023-04-25T06:22:31;100514.13;;;17.83;49.00
41250;BME280;26984;59.928;30.306;2023-04-25T06:24:59;100509.78;;;17.92;48.41
41250;BME280;26984;59.928;30.306;2023-04-25T06:27:27;100516.38;;;18.01;48.46
41250;BME280;26984;59.928;30.306;2023-04-25T06:29:55;100517.47;;;18.10;48.00
41250;BME280;26984;59.928;30.306;2023-04-25T06:32:23;100515.03;;;18.14;47.34
41250;BME280;26984;59.928;30.306;2023-04-25T06:34:54;100519.91;;;18.07;48.70
41250;BME280;26984;59.928;30.306;2023-04-25T06:37:22;100519.66;;;18.13;48.04
41250;BME280;26984;59.928;30.306;2023-04-25T06:39:52;100512.59;;;18.28;47.62
41250;BME280;26984;59.928;30.306;2023-04-25T06:42:19;100509.06;;;18.42;47.47
41250;BME280;26984;59.928;30.306;2023-04-25T06:44:58;100507.47;;;18.47;47.55
41250;BME280;26984;59.928;30.306;2023-04-25T06:47:27;100510.47;;;18.50;47.79
41250;BME280;26984;59.928;30.306;2023-04-25T06:49:55;100510.44;;;18.60;47.35
41250;BME280;26984;59.928;30.306;2023-04-25T06:52:23;100511.28;;;18.71;47.20
41250;BME280;26984;59.928;30.306;2023-04-25T06:54:54;100502.56;;;18.89;45.58
41250;BME280;26984;59.928;30.306;2023-04-25T06:57:34;100504.44;;;18.99;45.85
41250;BME280;26984;59.928;30.306;2023-04-25T07:00:21;100503.34;;;19.10;45.74
41250;BME280;26984;59.928;30.306;2023-04-25T07:02:49;100500.31;;;19.17;45.81
41250;BME280;26984;59.928;30.306;2023-04-25T07:05:17;100497.28;;;19.34;44.68
41250;BME280;26984;59.928;30.306;2023-04-25T07:07:44;100496.16;;;19.40;43.48
41250;BME280;26984;59.928;30.306;2023-04-25T07:10:13;100502.38;;;19.56;42.98
41250;BME280;26984;59.928;30.306;2023-04-25T07:12:41;100496.66;;;19.68;42.41
41250;BME280;26984;59.928;30.306;2023-04-25T07:15:08;100494.09;;;19.87;40.49
41250;BME280;26984;59.928;30.306;2023-04-25T07:17:40;100495.13;;;19.96;39.58
41250;BME280;26984;59.928;30.306;2023-04-25T07:20:08;100502.13;;;20.17;39.08
41250;BME280;26984;59.928;30.306;2023-04-25T07:22:36;100506.44;;;20.23;38.11
41250;BME280;26984;59.928;30.306;2023-04-25T07:25:04;100502.53;;;20.34;39.69
41250;BME280;26984;59.928;30.306;2023-04-25T07:27:34;100498.63;;;20.46;39.78
41250;BME280;26984;59.928;30.306;2023-04-25T07:30:08;100501.28;;;20.56;39.44
41250;BME280;26984;59.928;30.306;2023-04-25T07:32:38;100491.09;;;20.67;38.24
41250;BME280;26984;59.928;30.306;2023-04-25T07:35:06;100494.03;;;20.75;38.15
41250;BME280;26984;59.928;30.306;2023-04-25T07:37:34;100494.53;;;20.77;38.12
41250;BME280;26984;59.928;30.306;2023-04-25T07:40:09;100486.81;;;20.85;38.13
41250;BME280;26984;59.928;30.306;2023-04-25T07:42:43;100484.59;;;20.92;37.30
41250;BME280;26984;59.928;30.306;2023-04-25T07:45:12;100482.91;;;20.96;36.63
41250;BME280;26984;59.928;30.306;2023-04-25T07:47:41;100484.47;;;21.02;34.62
41250;BME280;26984;59.928;30.306;2023-04-25T07:50:09;100482.72;;;21.11;35.33
41250;BME280;26984;59.928;30.306;2023-04-25T07:52:37;100487.56;;;21.19;34.71
41250;BME280;26984;59.928;30.306;2023-04-25T07:55:21;100482.28;;;21.28;32.97
41250;BME280;26984;59.928;30.306;2023-04-25T07:58:02;100492.94;;;21.35;33.09
41250;BME280;26984;59.928;30.306;2023-04-25T08:00:31;100495.34;;;21.36;32.31
41250;BME280;26984;59.928;30.306;2023-04-25T08:03:21;100489.06;;;21.36;32.35
41250;BME280;26984;59.928;30.306;2023-04-25T08:05:50;100487.69;;;21.33;32.75
41250;BME280;26984;59.928;30.306;2023-04-25T08:08:18;100492.31;;;21.38;32.19
41250;BME280;26984;59.928;30.306;2023-04-25T08:10:46;100492.31;;;21.38;31.40
41250;BME280;26984;59.928;30.306;2023-04-25T08:13:18;100484.09;;;21.38;32.25
41250;BME280;26984;59.928;30.306;2023-04-25T08:15:46;100487.59;;;21.43;31.76
41250;BME280;26984;59.928;30.306;2023-04-25T08:18:13;100479.91;;;21.45;30.96
41250;BME280;26984;59.928;30.306;2023-04-25T08:20:42;100486.47;;;21.44;31.00
41250;BME280;26984;59.928;30.306;2023-04-25T08:23:11;100481.47;;;21.51;31.42
41250;BME280;26984;59.928;30.306;2023-04-25T08:25:54;100478.03;;;21.65;31.08
41250;BME280;26984;59.928;30.306;2023-04-25T08:28:27;100491.06;;;21.73;30.74
41250;BME280;26984;59.928;30.306;2023-04-25T08:30:59;100489.13;;;21.73;28.29
41250;BME280;26984;59.928;30.306;2023-04-25T08:33:33;100482.63;;;21.69;28.55
41250;BME280;26984;59.928;30.306;2023-04-25T08:36:11;100480.44;;;21.66;28.59
41250;BME280;26984;59.928;30.306;2023-04-25T08:38:39;100487.34;;;21.64;28.87
41250;BME280;26984;59.928;30.306;2023-04-25T08:41:09;100485.34;;;21.69;28.98
41250;BME280;26984;59.928;30.306;2023-04-25T08:43:39;100483.38;;;21.75;28.59
41250;BME280;26984;59.928;30.306;2023-04-25T08:46:09;100479.38;;;21.86;28.06
41250;BME280;26984;59.928;30.306;2023-04-25T08:48:48;100487.03;;;21.89;28.19
41250;BME280;26984;59.928;30.306;2023-04-25T08:51:20;100480.34;;;21.95;27.62
41250;BME280;26984;59.928;30.306;2023-04-25T08:53:50;100492.50;;;21.89;27.49
41250;BME280;26984;59.928;30.306;2023-04-25T08:56:19;100482.47;;;21.80;27.54
41250;BME280;26984;59.928;30.306;2023-04-25T08:58:50;100471.50;;;21.80;27.88
41250;BME280;26984;59.928;30.306;2023-04-25T09:01:18;100477.59;;;21.76;27.50
41250;BME280;26984;59.928;30.306;2023-04-25T09:03:50;100472.88;;;21.58;28.13
41250;BME280;26984;59.928;30.306;2023-04-25T09:06:18;100474.09;;;21.71;28.22
41250;BME280;26984;59.928;30.306;2023-04-25T09:08:49;100481.31;;;21.86;28.23
41250;BME280;26984;59.928;30.306;2023-04-25T09:11:17;100477.09;;;21.93;28.77
41250;BME280;26984;59.928;30.306;2023-04-25T09:13:44;100482.97;;;22.06;28.36
41250;BME280;26984;59.928;30.306;2023-04-25T09:16:26;100482.00;;;22.15;27.88
41250;BME280;26984;59.928;30.306;2023-04-25T09:19:21;100479.19;;;22.20;27.99
41250;BME280;26984;59.928;30.306;2023-04-25T09:21:49;100475.41;;;22.16;26.93
41250;BME280;26984;59.928;30.306;2023-04-25T09:24:18;100467.97;;;21.98;27.83
41250;BME280;26984;59.928;30.306;2023-04-25T09:26:46;100464.72;;;21.96;27.05
41250;BME280;26984;59.928;30.306;2023-04-25T09:29:14;100473.75;;;21.96;27.47
41250;BME280;26984;59.928;30.306;2023-04-25T09:31:44;100467.81;;;22.08;27.53
41250;BME280;26984;59.928;30.306;2023-04-25T09:34:12;100462.38;;;22.27;26.60
41250;BME280;26984;59.928;30.306;2023-04-25T09:36:46;100475.31;;;22.40;26.87
41250;BME280;26984;59.928;30.306;2023-04-25T09:39:32;100469.25;;;22.57;26.77
41250;BME280;26984;59.928;30.306;2023-04-25T09:42:10;100464.81;;;22.61;26.68
41250;BME280;26984;59.928;30.306;2023-04-25T09:44:40;100463.22;;;22.74;26.99
41250;BME280;26984;59.928;30.306;2023-04-25T09:47:11;100459.28;;;22.94;26.66
41250;BME280;26984;59.928;30.306;2023-04-25T09:49:40;100467.78;;;23.11;26.46
41250;BME280;26984;59.928;30.306;2023-04-25T09:52:13;100477.03;;;23.29;26.52
41250;BME280;26984;59.928;30.306;2023-04-25T09:54:54;100477.97;;;23.38;25.81
41250;BME280;26984;59.928;30.306;2023-04-25T09:57:28;100479.19;;;23.32;25.98
41250;BME280;26984;59.928;30.306;2023-04-25T09:59:57;100479.59;;;23.39;26.17
41250;BME280;26984;59.928;30.306;2023-04-25T10:02:45;100483.47;;;23.52;25.87
41250;BME280;26984;59.928;30.306;2023-04-25T10:05:30;100472.25;;;23.62;25.98
41250;BME280;26984;59.928;30.306;2023-04-25T10:07:59;100482.44;;;23.76;25.82
41250;BME280;26984;59.928;30.306;2023-04-25T10:10:27;100475.56;;;23.87;25.68
41250;BME280;26984;59.928;30.306;2023-04-25T10:12:55;100476.06;;;24.03;25.19
41250;BME280;26984;59.928;30.306;2023-04-25T10:15:23;100480.00;;;24.10;24.84
41250;BME280;26984;59.928;30.306;2023-04-25T10:17:52;100473.06;;;24.13;24.53
41250;BME280;26984;59.928;30.306;2023-04-25T10:20:20;100485.41;;;24.16;24.55
41250;BME280;26984;59.928;30.306;2023-04-25T10:22:49;100470.91;;;23.87;25.21
41250;BME280;26984;59.928;30.306;2023-04-25T10:25:20;100476.84;;;23.67;25.56
41250;BME280;26984;59.928;30.306;2023-04-25T10:27:47;100475.91;;;23.44;25.78
41250;BME280;26984;59.928;30.306;2023-04-25T10:30:17;100483.53;;;23.33;25.96
41250;BME280;26984;59.928;30.306;2023-04-25T10:32:45;100480.81;;;23.20;26.14
41250;BME280;26984;59.928;30.306;2023-04-25T10:35:18;100485.69;;;23.09;25.95
41250;BME280;26984;59.928;30.306;2023-04-25T10:37:58;100483.34;;;23.02;26.45
41250;BME280;26984;59.928;30.306;2023-04-25T10:40:26;100477.13;;;23.10;27.36
41250;BME280;26984;59.928;30.306;2023-04-25T10:42:53;100495.16;;;23.44;25.99
41250;BME280;26984;59.928;30.306;2023-04-25T10:45:21;100471.59;;;23.65;25.05
41250;BME280;26984;59.928;30.306;2023-04-25T10:47:49;100484.16;;;23.72;25.08
41250;BME280;26984;59.928;30.306;2023-04-25T10:50:18;100491.19;;;23.64;25.50
41250;BME280;26984;59.928;30.306;2023-04-25T10:52:45;100487.50;;;23.55;25.75
41250;BME280;26984;59.928;30.306;2023-04-25T10:55:13;100492.59;;;23.48;25.46
41250;BME280;26984;59.928;30.306;2023-04-25T10:57:42;100496.06;;;23.39;25.51
41250;BME280;26984;59.928;30.306;2023-04-25T11:00:11;100496.19;;;23.34;26.04
41250;BME280;26984;59.928;30.306;2023-04-25T11:02:42;100486.50;;;23.37;26.13
41250;BME280;26984;59.928;30.306;2023-04-25T11:05:11;100477.03;;;23.43;25.72
41250;BME280;26984;59.928;30.306;2023-04-25T11:07:47;100478.16;;;23.42;25.21
41250;BME280;26984;59.928;30.306;2023-04-25T11:10:16;100476.63;;;23.50;25.72
41250;BME280;26984;59.928;30.306;2023-04-25T11:12:44;100486.91;;;23.72;24.86
41250;BME280;26984;59.928;30.306;2023-04-25T11:15:12;100491.59;;;23.71;24.58
41250;BME280;26984;59.928;30.306;2023-04-25T11:17:40;100483.94;;;23.40;24.43
41250;BME280;26984;59.928;30.306;2023-04-25T11:20:09;100486.38;;;23.01;24.93
41250;BME280;26984;59.928;30.306;2023-04-25T11:22:40;100490.09;;;22.77;25.39
41250;BME280;26984;59.928;30.306;2023-04-25T11:25:10;100497.47;;;22.77;25.95
41250;BME280;26984;59.928;30.306;2023-04-25T11:27:38;100492.25;;;22.94;25.46
41250;BME280;26984;59.928;30.306;2023-04-25T11:30:10;100483.56;;;23.06;25.10
41250;BME280;26984;59.928;30.306;2023-04-25T11:32:39;100490.88;;;23.10;25.48
41250;BME280;26984;59.928;30.306;2023-04-25T11:35:06;100490.69;;;23.21;25.11
41250;BME280;26984;59.928;30.306;2023-04-25T11:37:34;100483.88;;;23.32;24.91
41250;BME280;26984;59.928;30.306;2023-04-25T11:40:02;100480.72;;;23.52;24.60
41250;BME280;26984;59.928;30.306;2023-04-25T11:42:33;100484.06;;;23.77;24.77
41250;BME280;26984;59.928;30.306;2023-04-25T11:45:01;100479.56;;;23.95;24.58
41250;BME280;26984;59.928;30.306;2023-04-25T11:47:30;100490.44;;;24.00;24.60
41250;BME280;26984;59.928;30.306;2023-04-25T11:49:58;100475.91;;;23.85;24.37
41250;BME280;26984;59.928;30.306;2023-04-25T11:52:36;100484.28;;;23.80;24.63
41250;BME280;26984;59.928;30.306;2023-04-25T11:55:12;100483.75;;;23.78;24.49
41250;BME280;26984;59.928;30.306;2023-04-25T11:57:42;100480.50;;;23.76;24.52
41250;BME280;26984;59.928;30.306;2023-04-25T12:00:10;100477.84;;;23.71;24.66
41250;BME280;26984;59.928;30.306;2023-04-25T12:02:41;100481.41;;;23.72;24.60
41250;BME280;26984;59.928;30.306;2023-04-25T12:05:08;100480.28;;;23.73;24.25
41250;BME280;26984;59.928;30.306;2023-04-25T12:07:37;100482.84;;;23.69;24.46
41250;BME280;26984;59.928;30.306;2023-04-25T12:10:05;100473.06;;;23.77;24.25
41250;BME280;26984;59.928;30.306;2023-04-25T12:12:33;100467.31;;;23.87;24.11
41250;BME280;26984;59.928;30.306;2023-04-25T12:15:12;100468.41;;;24.00;24.13
41250;BME280;26984;59.928;30.306;2023-04-25T12:17:41;100467.00;;;24.02;24.35
41250;BME280;26984;59.928;30.306;2023-04-25T12:20:10;100470.59;;;23.89;24.39
41250;BME280;26984;59.928;30.306;2023-04-25T12:22:38;100460.75;;;23.74;24.65
41250;BME280;26984;59.928;30.306;2023-04-25T12:25:10;100463.28;;;23.57;24.94
41250;BME280;26984;59.928;30.306;2023-04-25T12:27:38;100456.47;;;23.40;24.34
41250;BME280;26984;59.928;30.306;2023-04-25T12:30:08;100463.50;;;23.33;24.98
41250;BME280;26984;59.928;30.306;2023-04-25T12:32:38;100462.88;;;23.36;24.75
41250;BME280;26984;59.928;30.306;2023-04-25T12:35:09;100461.34;;;23.43;24.85
41250;BME280;26984;59.928;30.306;2023-04-25T12:37:40;100455.84;;;23.43;25.32
41250;BME280;26984;59.928;30.306;2023-04-25T12:40:08;100446.59;;;23.53;24.71
41250;BME280;26984;59.928;30.306;2023-04-25T12:42:36;100454.31;;;23.65;24.78
41250;BME280;26984;59.928;30.306;2023-04-25T12:45:05;100461.16;;;23.68;24.62
41250;BME280;26984;59.928;30.306;2023-04-25T12:47:34;100453.50;;;23.64;24.63
41250;BME280;26984;59.928;30.306;2023-04-25T12:50:34;100453.22;;;23.52;24.60
41250;BME280;26984;59.928;30.306;2023-04-25T12:53:05;100445.88;;;23.48;25.54
41250;BME280;26984;59.928;30.306;2023-04-25T12:55:38;100449.34;;;23.53;24.73
41250;BME280;26984;59.928;30.306;2023-04-25T12:58:27;100451.75;;;23.55;24.90
41250;BME280;26984;59.928;30.306;2023-04-25T13:00:54;100445.66;;;23.44;24.61
41250;BME280;26984;59.928;30.306;2023-04-25T13:03:23;100445.72;;;23.30;24.84